createdAt,value
2022-09-24T00:00:00.000Z,11.95
2022-09-24T00:15:00.000Z,12.06
2022-09-24T00:30:00.000Z,12.16
2022-09-24T00:45:00.000Z,12.22
2022-09-24T01:00:00.000Z,12.21
2022-09-24T01:15:00.000Z,12.17
2022-09-24T01:30:00.000Z,12.2
2022-09-24T01:45:00.000Z,12.3
2022-09-24T02:15:00.000Z,12.07
2022-09-24T02:15:00.000Z,12.02
2022-09-24T02:30:00.000Z,12.04
2022-09-24T02:45:00.000Z,12.07
2022-09-24T03:00:00.000Z,12.11
2022-09-24T03:15:00.000Z,12.05
2022-09-24T03:30:00.000Z,11.82
2022-09-24T03:45:00.000Z,12.03
2022-09-24T04:00:00.000Z,12.19
2022-09-24T04:15:00.000Z,12.31
2022-09-24T04:30:00.000Z,12.56
2022-09-24T04:45:00.000Z,12.48
2022-09-24T05:00:00.000Z,12.23
2022-09-24T05:15:00.000Z,12.26
2022-09-24T05:30:00.000Z,12.54
2022-09-24T05:45:00.000Z,12.88
2022-09-24T06:00:00.000Z,13.07
2022-09-24T06:15:00.000Z,13.34
2022-09-24T06:30:00.000Z,14.56
2022-09-24T06:45:00.000Z,15.5
2022-09-24T07:00:00.000Z,16.51
2022-09-24T07:15:00.000Z,17.15
2022-09-24T07:30:00.000Z,18.07
2022-09-24T07:45:00.000Z,17.96
2022-09-24T08:00:00.000Z,20.26
2022-09-24T08:15:00.000Z,22.4
2022-09-24T08:30:00.000Z,21.86
2022-09-24T08:45:00.000Z,20.98
2022-09-24T09:00:00.000Z,20.05
2022-09-24T09:15:00.000Z,19.83
2022-09-24T09:30:00.000Z,19.59
2022-09-24T09:45:00.000Z,19.7
2022-09-24T10:00:00.000Z,20.42
2022-09-24T10:15:00.000Z,20.42
2022-09-24T10:30:00.000Z,20.24
2022-09-24T10:45:00.000Z,20.48
2022-09-24T11:00:00.000Z,20.42
2022-09-24T11:15:00.000Z,20.58
2022-09-24T11:30:00.000Z,20.41
2022-09-24T11:45:00.000Z,20.44
2022-09-24T12:00:00.000Z,20.31
2022-09-24T12:15:00.000Z,20.17
2022-09-24T12:30:00.000Z,19.72
2022-09-24T12:45:00.000Z,19.74
2022-09-24T13:00:00.000Z,19.95
2022-09-24T13:15:00.000Z,19.57
2022-09-24T13:30:00.000Z,19.09
2022-09-24T13:45:00.000Z,18.87
2022-09-24T14:00:00.000Z,18.56
2022-09-24T14:15:00.000Z,18.25
2022-09-24T14:30:00.000Z,17.9
2022-09-24T14:45:00.000Z,18.08
2022-09-24T15:00:00.000Z,18.08
2022-09-24T15:15:00.000Z,18.2
2022-09-24T15:30:00.000Z,18.28
2022-09-24T15:45:00.000Z,17.84
2022-09-24T16:15:00.000Z,17.41
2022-09-24T16:15:00.000Z,17.36
2022-09-24T16:30:00.000Z,17.13
2022-09-24T16:45:00.000Z,16.9
2022-09-24T17:00:00.000Z,16.72
2022-09-24T17:15:00.000Z,16.64
2022-09-24T17:30:00.000Z,16.42
2022-09-24T17:45:00.000Z,16.23
2022-09-24T18:00:00.000Z,16.05
2022-09-24T18:15:00.000Z,15.85
2022-09-24T18:30:00.000Z,15.57
2022-09-24T18:45:00.000Z,15.54
2022-09-24T19:00:00.000Z,15.46
2022-09-24T19:15:00.000Z,15.26
2022-09-24T19:30:00.000Z,15
2022-09-24T19:45:00.000Z,15.01
2022-09-24T20:00:00.000Z,14.93
2022-09-24T20:15:00.000Z,14.88
2022-09-24T20:30:00.000Z,14.77
2022-09-24T20:45:00.000Z,14.62
2022-09-24T21:00:00.000Z,14.55
2022-09-24T21:15:00.000Z,14.44
2022-09-24T21:30:00.000Z,14.38
2022-09-24T21:45:00.000Z,14.42
2022-09-24T22:00:00.000Z,14.49
2022-09-24T22:15:00.000Z,14.31
2022-09-24T22:30:00.000Z,14.32
2022-09-24T22:45:00.000Z,14.32
2022-09-24T23:00:00.000Z,14.46
2022-09-24T23:15:00.000Z,14.39
2022-09-24T23:30:00.000Z,14.45
2022-09-24T23:45:00.000Z,14.41
